sensor_id;sensor_type;location;lat;lon;timestamp;P1;durP1;ratioP1;P2;durP2;ratioP2
66546;SDS011;53400;50.364;14.874;2023-06-04T00:02:05;4.85;;;2.30;;
66546;SDS011;53400;50.364;14.874;2023-06-04T00:04:33;6.63;;;2.33;;
66546;SDS011;53400;50.364;14.874;2023-06-04T00:06:59;7.00;;;2.50;;
66546;SDS011;53400;50.364;14.874;2023-06-04T00:09:25;6.40;;;2.67;;
66546;SDS011;53400;50.364;14.874;2023-06-04T00:11:51;8.07;;;2.30;;
66546;SDS011;53400;50.364;14.874;2023-06-04T00:14:17;6.03;;;2.35;;
66546;SDS011;53400;50.364;14.874;2023-06-04T00:16:43;6.45;;;2.50;;
66546;SDS011;53400;50.364;14.874;2023-06-04T00:19:10;5.32;;;2.10;;
66546;SDS011;53400;50.364;14.874;2023-06-04T00:21:37;7.57;;;2.58;;
66546;SDS011;53400;50.364;14.874;2023-06-04T00:24:03;8.18;;;2.78;;
66546;SDS011;53400;50.364;14.874;2023-06-04T00:26:30;5.32;;;2.40;;
66546;SDS011;53400;50.364;14.874;2023-06-04T00:28:56;5.00;;;2.17;;
66546;SDS011;53400;50.364;14.874;2023-06-04T00:31:22;5.63;;;2.45;;
66546;SDS011;53400;50.364;14.874;2023-06-04T00:33:49;5.65;;;2.25;;
66546;SDS011;53400;50.364;14.874;2023-06-04T00:36:15;5.15;;;2.20;;
66546;SDS011;53400;50.364;14.874;2023-06-04T00:38:44;5.68;;;2.30;;
66546;SDS011;53400;50.364;14.874;2023-06-04T00:41:10;4.47;;;1.95;;
66546;SDS011;53400;50.364;14.874;2023-06-04T00:43:40;6.10;;;2.30;;
66546;SDS011;53400;50.364;14.874;2023-06-04T00:46:11;6.35;;;2.17;;
66546;SDS011;53400;50.364;14.874;2023-06-04T00:48:43;4.25;;;1.92;;
66546;SDS011;53400;50.364;14.874;2023-06-04T00:51:10;5.82;;;2.28;;
66546;SDS011;53400;50.364;14.874;2023-06-04T00:53:37;5.93;;;2.60;;
66546;SDS011;53400;50.364;14.874;2023-06-04T00:56:05;6.40;;;2.60;;
66546;SDS011;53400;50.364;14.874;2023-06-04T00:58:33;4.47;;;1.90;;
66546;SDS011;53400;50.364;14.874;2023-06-04T01:01:04;5.13;;;2.10;;
66546;SDS011;53400;50.364;14.874;2023-06-04T01:03:33;5.47;;;2.03;;
66546;SDS011;53400;50.364;14.874;2023-06-04T01:06:04;4.45;;;1.85;;
66546;SDS011;53400;50.364;14.874;2023-06-04T01:08:38;6.38;;;2.00;;
66546;SDS011;53400;50.364;14.874;2023-06-04T01:11:09;5.47;;;2.03;;
66546;SDS011;53400;50.364;14.874;2023-06-04T01:13:36;6.85;;;2.40;;
66546;SDS011;53400;50.364;14.874;2023-06-04T01:16:01;5.18;;;2.05;;
66546;SDS011;53400;50.364;14.874;2023-06-04T01:18:29;5.35;;;1.90;;
66546;SDS011;53400;50.364;14.874;2023-06-04T01:21:02;5.00;;;2.13;;
66546;SDS011;53400;50.364;14.874;2023-06-04T01:23:33;4.50;;;1.92;;
66546;SDS011;53400;50.364;14.874;2023-06-04T01:26:08;6.35;;;1.92;;
66546;SDS011;53400;50.364;14.874;2023-06-04T01:28:37;5.88;;;1.98;;
66546;SDS011;53400;50.364;14.874;2023-06-04T01:31:04;8.07;;;3.03;;
66546;SDS011;53400;50.364;14.874;2023-06-04T01:33:35;5.57;;;2.10;;
66546;SDS011;53400;50.364;14.874;2023-06-04T01:36:01;4.20;;;1.60;;
66546;SDS011;53400;50.364;14.874;2023-06-04T01:38:28;5.97;;;2.38;;
66546;SDS011;53400;50.364;14.874;2023-06-04T01:40:54;4.60;;;1.80;;
66546;SDS011;53400;50.364;14.874;2023-06-04T01:43:23;5.75;;;2.13;;
66546;SDS011;53400;50.364;14.874;2023-06-04T01:45:49;4.95;;;1.98;;
66546;SDS011;53400;50.364;14.874;2023-06-04T01:48:16;4.95;;;2.22;;
66546;SDS011;53400;50.364;14.874;2023-06-04T01:50:43;5.20;;;2.10;;
66546;SDS011;53400;50.364;14.874;2023-06-04T01:53:10;5.25;;;2.20;;
66546;SDS011;53400;50.364;14.874;2023-06-04T01:55:36;5.65;;;2.30;;
66546;SDS011;53400;50.364;14.874;2023-06-04T01:58:03;6.40;;;2.22;;
66546;SDS011;53400;50.364;14.874;2023-06-04T02:00:31;5.53;;;2.45;;
66546;SDS011;53400;50.364;14.874;2023-06-04T02:02:58;4.68;;;2.10;;
66546;SDS011;53400;50.364;14.874;2023-06-04T02:05:26;4.75;;;1.92;;
66546;SDS011;53400;50.364;14.874;2023-06-04T02:07:52;6.53;;;2.28;;
66546;SDS011;53400;50.364;14.874;2023-06-04T02:10:19;5.18;;;1.95;;
66546;SDS011;53400;50.364;14.874;2023-06-04T02:12:53;5.40;;;1.90;;
66546;SDS011;53400;50.364;14.874;2023-06-04T02:15:20;5.22;;;1.75;;
66546;SDS011;53400;50.364;14.874;2023-06-04T02:17:50;4.18;;;1.90;;
66546;SDS011;53400;50.364;14.874;2023-06-04T02:20:21;5.22;;;1.80;;
66546;SDS011;53400;50.364;14.874;2023-06-04T02:22:47;5.20;;;2.20;;
66546;SDS011;53400;50.364;14.874;2023-06-04T02:25:13;5.10;;;2.10;;
66546;SDS011;53400;50.364;14.874;2023-06-04T02:27:41;4.22;;;1.95;;
66546;SDS011;53400;50.364;14.874;2023-06-04T02:30:08;7.15;;;2.85;;
66546;SDS011;53400;50.364;14.874;2023-06-04T02:32:35;6.75;;;2.10;;
66546;SDS011;53400;50.364;14.874;2023-06-04T02:35:03;5.85;;;1.92;;
66546;SDS011;53400;50.364;14.874;2023-06-04T02:37:30;5.28;;;1.80;;
66546;SDS011;53400;50.364;14.874;2023-06-04T02:39:56;5.95;;;2.55;;
66546;SDS011;53400;50.364;14.874;2023-06-04T02:42:22;5.68;;;2.30;;
66546;SDS011;53400;50.364;14.874;2023-06-04T02:44:48;4.82;;;2.10;;
66546;SDS011;53400;50.364;14.874;2023-06-04T02:47:15;4.32;;;1.90;;
66546;SDS011;53400;50.364;14.874;2023-06-04T02:49:41;6.03;;;2.17;;
66546;SDS011;53400;50.364;14.874;2023-06-04T02:52:09;5.15;;;2.35;;
66546;SDS011;53400;50.364;14.874;2023-06-04T02:54:35;4.97;;;1.80;;
66546;SDS011;53400;50.364;14.874;2023-06-04T02:57:01;6.18;;;2.10;;
66546;SDS011;53400;50.364;14.874;2023-06-04T02:59:27;4.53;;;2.05;;
66546;SDS011;53400;50.364;14.874;2023-06-04T03:01:53;4.93;;;1.90;;
66546;SDS011;53400;50.364;14.874;2023-06-04T03:04:19;6.05;;;2.70;;
66546;SDS011;53400;50.364;14.874;2023-06-04T03:06:47;6.85;;;2.63;;
66546;SDS011;53400;50.364;14.874;2023-06-04T03:09:14;4.55;;;1.98;;
66546;SDS011;53400;50.364;14.874;2023-06-04T03:11:42;4.50;;;2.15;;
66546;SDS011;53400;50.364;14.874;2023-06-04T03:14:08;5.50;;;2.03;;
66546;SDS011;53400;50.364;14.874;2023-06-04T03:16:34;4.60;;;2.05;;
66546;SDS011;53400;50.364;14.874;2023-06-04T03:19:00;4.75;;;2.13;;
66546;SDS011;53400;50.364;14.874;2023-06-04T03:21:27;6.13;;;2.30;;
66546;SDS011;53400;50.364;14.874;2023-06-04T03:23:54;4.85;;;1.95;;
66546;SDS011;53400;50.364;14.874;2023-06-04T03:26:22;6.32;;;2.15;;
66546;SDS011;53400;50.364;14.874;2023-06-04T03:28:48;4.18;;;1.80;;
66546;SDS011;53400;50.364;14.874;2023-06-04T03:31:15;5.43;;;2.25;;
66546;SDS011;53400;50.364;14.874;2023-06-04T03:33:41;4.13;;;1.80;;
66546;SDS011;53400;50.364;14.874;2023-06-04T03:36:08;6.32;;;2.33;;
66546;SDS011;53400;50.364;14.874;2023-06-04T03:38:34;4.68;;;1.92;;
66546;SDS011;53400;50.364;14.874;2023-06-04T03:41:01;4.65;;;2.20;;
66546;SDS011;53400;50.364;14.874;2023-06-04T03:43:28;4.30;;;1.75;;
66546;SDS011;53400;50.364;14.874;2023-06-04T03:45:54;5.18;;;2.33;;
66546;SDS011;53400;50.364;14.874;2023-06-04T03:48:20;4.30;;;2.03;;
66546;SDS011;53400;50.364;14.874;2023-06-04T03:50:47;5.85;;;2.00;;
66546;SDS011;53400;50.364;14.874;2023-06-04T03:53:14;5.70;;;1.90;;
66546;SDS011;53400;50.364;14.874;2023-06-04T03:55:41;5.53;;;2.03;;
66546;SDS011;53400;50.364;14.874;2023-06-04T03:58:06;6.18;;;1.90;;
66546;SDS011;53400;50.364;14.874;2023-06-04T04:00:36;4.93;;;2.22;;
66546;SDS011;53400;50.364;14.874;2023-06-04T04:03:02;6.18;;;2.08;;
66546;SDS011;53400;50.364;14.874;2023-06-04T04:05:29;5.55;;;2.22;;
66546;SDS011;53400;50.364;14.874;2023-06-04T04:07:54;5.10;;;2.20;;
66546;SDS011;53400;50.364;14.874;2023-06-04T04:10:21;4.53;;;2.13;;
66546;SDS011;53400;50.364;14.874;2023-06-04T04:12:47;5.25;;;2.22;;
66546;SDS011;53400;50.364;14.874;2023-06-04T04:15:14;6.18;;;2.33;;
66546;SDS011;53400;50.364;14.874;2023-06-04T04:17:41;5.57;;;2.10;;
66546;SDS011;53400;50.364;14.874;2023-06-04T04:20:09;4.97;;;2.22;;
66546;SDS011;53400;50.364;14.874;2023-06-04T04:22:39;6.50;;;2.03;;
66546;SDS011;53400;50.364;14.874;2023-06-04T04:25:06;5.50;;;2.17;;
66546;SDS011;53400;50.364;14.874;2023-06-04T04:27:34;4.68;;;1.98;;
66546;SDS011;53400;50.364;14.874;2023-06-04T04:30:04;6.72;;;2.30;;
66546;SDS011;53400;50.364;14.874;2023-06-04T04:32:31;5.00;;;2.33;;
66546;SDS011;53400;50.364;14.874;2023-06-04T04:34:58;4.57;;;2.08;;
66546;SDS011;53400;50.364;14.874;2023-06-04T04:37:25;5.03;;;2.00;;
66546;SDS011;53400;50.364;14.874;2023-06-04T04:39:52;4.97;;;1.95;;
66546;SDS011;53400;50.364;14.874;2023-06-04T04:42:18;5.03;;;1.98;;
66546;SDS011;53400;50.364;14.874;2023-06-04T04:44:45;5.72;;;2.50;;
66546;SDS011;53400;50.364;14.874;2023-06-04T04:47:13;4.78;;;2.33;;
66546;SDS011;53400;50.364;14.874;2023-06-04T04:49:39;5.72;;;2.05;;
66546;SDS011;53400;50.364;14.874;2023-06-04T04:52:07;5.45;;;2.20;;
66546;SDS011;53400;50.364;14.874;2023-06-04T04:54:33;5.15;;;2.47;;
66546;SDS011;53400;50.364;14.874;2023-06-04T04:56:59;5.78;;;2.33;;
66546;SDS011;53400;50.364;14.874;2023-06-04T04:59:26;7.10;;;2.45;;
66546;SDS011;53400;50.364;14.874;2023-06-04T05:01:52;8.75;;;2.38;;
66546;SDS011;53400;50.364;14.874;2023-06-04T05:04:18;7.43;;;2.50;;
66546;SDS011;53400;50.364;14.874;2023-06-04T05:06:45;7.20;;;2.63;;
66546;SDS011;53400;50.364;14.874;2023-06-04T05:09:12;6.97;;;2.53;;
66546;SDS011;53400;50.364;14.874;2023-06-04T05:11:38;4.25;;;2.15;;
66546;SDS011;53400;50.364;14.874;2023-06-04T05:14:04;4.80;;;2.35;;
66546;SDS011;53400;50.364;14.874;2023-06-04T05:16:31;7.40;;;2.60;;
66546;SDS011;53400;50.364;14.874;2023-06-04T05:18:57;4.95;;;2.15;;
66546;SDS011;53400;50.364;14.874;2023-06-04T05:21:23;5.20;;;2.10;;
66546;SDS011;53400;50.364;14.874;2023-06-04T05:23:49;4.30;;;2.15;;
66546;SDS011;53400;50.364;14.874;2023-06-04T05:26:17;6.00;;;2.25;;
66546;SDS011;53400;50.364;14.874;2023-06-04T05:28:43;5.63;;;2.47;;
66546;SDS011;53400;50.364;14.874;2023-06-04T05:31:09;5.90;;;2.35;;
66546;SDS011;53400;50.364;14.874;2023-06-04T05:33:39;5.97;;;2.15;;
66546;SDS011;53400;50.364;14.874;2023-06-04T05:36:05;5.05;;;2.30;;
66546;SDS011;53400;50.364;14.874;2023-06-04T05:38:31;6.53;;;2.28;;
66546;SDS011;53400;50.364;14.874;2023-06-04T05:40:57;5.57;;;2.72;;
66546;SDS011;53400;50.364;14.874;2023-06-04T05:43:24;6.93;;;2.70;;
66546;SDS011;53400;50.364;14.874;2023-06-04T05:45:51;5.82;;;2.35;;
66546;SDS011;53400;50.364;14.874;2023-06-04T05:48:16;6.07;;;2.38;;
66546;SDS011;53400;50.364;14.874;2023-06-04T05:50:43;5.55;;;2.40;;
66546;SDS011;53400;50.364;14.874;2023-06-04T05:53:10;3.85;;;2.08;;
66546;SDS011;53400;50.364;14.874;2023-06-04T05:55:36;4.68;;;2.30;;
66546;SDS011;53400;50.364;14.874;2023-06-04T05:58:02;6.25;;;2.08;;
66546;SDS011;53400;50.364;14.874;2023-06-04T06:00:30;5.13;;;2.05;;
66546;SDS011;53400;50.364;14.874;2023-06-04T06:02:56;4.85;;;2.25;;
66546;SDS011;53400;50.364;14.874;2023-06-04T06:05:23;7.40;;;2.45;;
66546;SDS011;53400;50.364;14.874;2023-06-04T06:07:51;5.00;;;2.90;;
66546;SDS011;53400;50.364;14.874;2023-06-04T06:10:17;6.75;;;2.22;;
66546;SDS011;53400;50.364;14.874;2023-06-04T06:12:44;4.25;;;2.03;;
66546;SDS011;53400;50.364;14.874;2023-06-04T06:15:11;5.65;;;2.10;;
66546;SDS011;53400;50.364;14.874;2023-06-04T06:17:39;4.65;;;2.08;;
66546;SDS011;53400;50.364;14.874;2023-06-04T06:20:06;4.82;;;2.00;;
66546;SDS011;53400;50.364;14.874;2023-06-04T06:22:34;6.57;;;2.30;;
66546;SDS011;53400;50.364;14.874;2023-06-04T06:25:01;5.18;;;2.00;;
66546;SDS011;53400;50.364;14.874;2023-06-04T06:27:28;6.65;;;2.40;;
66546;SDS011;53400;50.364;14.874;2023-06-04T06:29:55;6.50;;;2.17;;
66546;SDS011;53400;50.364;14.874;2023-06-04T06:32:22;6.65;;;2.03;;
66546;SDS011;53400;50.364;14.874;2023-06-04T06:34:55;4.57;;;1.88;;
66546;SDS011;53400;50.364;14.874;2023-06-04T06:37:21;6.78;;;1.75;;
66546;SDS011;53400;50.364;14.874;2023-06-04T06:39:46;6.47;;;2.00;;
66546;SDS011;53400;50.364;14.874;2023-06-04T06:42:13;5.53;;;1.92;;
66546;SDS011;53400;50.364;14.874;2023-06-04T06:44:39;4.97;;;1.75;;
66546;SDS011;53400;50.364;14.874;2023-06-04T06:47:05;4.97;;;1.92;;
66546;SDS011;53400;50.364;14.874;2023-06-04T06:49:32;5.47;;;1.75;;
66546;SDS011;53400;50.364;14.874;2023-06-04T06:51:59;5.05;;;1.85;;
66546;SDS011;53400;50.364;14.874;2023-06-04T06:54:25;5.22;;;1.83;;
66546;SDS011;53400;50.364;14.874;2023-06-04T06:56:51;4.10;;;1.77;;
66546;SDS011;53400;50.364;14.874;2023-06-04T06:59:17;5.93;;;1.80;;
66546;SDS011;53400;50.364;14.874;2023-06-04T07:01:43;5.45;;;1.85;;
66546;SDS011;53400;50.364;14.874;2023-06-04T07:04:10;5.93;;;2.00;;
66546;SDS011;53400;50.364;14.874;2023-06-04T07:06:36;4.70;;;2.15;;
66546;SDS011;53400;50.364;14.874;2023-06-04T07:09:03;5.60;;;1.92;;
66546;SDS011;53400;50.364;14.874;2023-06-04T07:11:31;4.25;;;1.60;;
66546;SDS011;53400;50.364;14.874;2023-06-04T07:13:57;6.32;;;1.90;;
66546;SDS011;53400;50.364;14.874;2023-06-04T07:16:23;4.88;;;1.70;;
66546;SDS011;53400;50.364;14.874;2023-06-04T07:18:50;4.43;;;1.58;;
66546;SDS011;53400;50.364;14.874;2023-06-04T07:21:16;4.70;;;1.80;;
66546;SDS011;53400;50.364;14.874;2023-06-04T07:23:41;5.13;;;1.77;;
66546;SDS011;53400;50.364;14.874;2023-06-04T07:26:09;5.70;;;1.77;;
66546;SDS011;53400;50.364;14.874;2023-06-04T07:28:36;4.38;;;2.00;;
66546;SDS011;53400;50.364;14.874;2023-06-04T07:31:02;4.95;;;1.60;;
66546;SDS011;53400;50.364;14.874;2023-06-04T07:33:28;4.85;;;1.90;;
66546;SDS011;53400;50.364;14.874;2023-06-04T07:35:54;4.00;;;1.70;;
66546;SDS011;53400;50.364;14.874;2023-06-04T07:38:20;4.22;;;1.70;;
66546;SDS011;53400;50.364;14.874;2023-06-04T07:40:46;5.32;;;2.03;;
66546;SDS011;53400;50.364;14.874;2023-06-04T07:43:14;5.82;;;1.80;;
66546;SDS011;53400;50.364;14.874;2023-06-04T07:45:40;6.40;;;2.03;;
66546;SDS011;53400;50.364;14.874;2023-06-04T07:48:06;5.78;;;1.70;;
66546;SDS011;53400;50.364;14.874;2023-06-04T07:50:34;3.75;;;1.77;;
66546;SDS011;53400;50.364;14.874;2023-06-04T07:53:00;4.18;;;1.70;;
66546;SDS011;53400;50.364;14.874;2023-06-04T07:55:27;3.90;;;1.70;;
66546;SDS011;53400;50.364;14.874;2023-06-04T07:57:53;3.55;;;1.60;;
66546;SDS011;53400;50.364;14.874;2023-06-04T08:00:24;5.00;;;1.70;;
66546;SDS011;53400;50.364;14.874;2023-06-04T08:02:50;4.97;;;1.50;;
66546;SDS011;53400;50.364;14.874;2023-06-04T08:05:18;4.15;;;1.50;;
66546;SDS011;53400;50.364;14.874;2023-06-04T08:07:45;3.40;;;1.60;;
66546;SDS011;53400;50.364;14.874;2023-06-04T08:10:20;3.85;;;1.60;;
66546;SDS011;53400;50.364;14.874;2023-06-04T08:12:47;5.05;;;1.58;;
66546;SDS011;53400;50.364;14.874;2023-06-04T08:15:15;3.33;;;1.38;;
66546;SDS011;53400;50.364;14.874;2023-06-04T08:17:43;5.18;;;1.52;;
66546;SDS011;53400;50.364;14.874;2023-06-04T08:20:10;4.07;;;1.60;;
66546;SDS011;53400;50.364;14.874;2023-06-04T08:22:40;5.22;;;1.58;;
66546;SDS011;53400;50.364;14.874;2023-06-04T08:25:16;6.65;;;1.75;;
66546;SDS011;53400;50.364;14.874;2023-06-04T08:27:42;5.53;;;1.80;;
66546;SDS011;53400;50.364;14.874;2023-06-04T08:30:09;4.22;;;1.50;;
66546;SDS011;53400;50.364;14.874;2023-06-04T08:32:35;4.35;;;1.67;;
66546;SDS011;53400;50.364;14.874;2023-06-04T08:35:03;3.72;;;1.40;;
66546;SDS011;53400;50.364;14.874;2023-06-04T08:37:32;4.88;;;1.80;;
66546;SDS011;53400;50.364;14.874;2023-06-04T08:39:59;4.20;;;1.58;;
66546;SDS011;53400;50.364;14.874;2023-06-04T08:42:27;6.05;;;2.13;;
66546;SDS011;53400;50.364;14.874;2023-06-04T08:44:55;5.78;;;1.63;;
66546;SDS011;53400;50.364;14.874;2023-06-04T08:47:22;3.80;;;1.45;;
66546;SDS011;53400;50.364;14.874;2023-06-04T08:49:51;3.50;;;1.50;;
66546;SDS011;53400;50.364;14.874;2023-06-04T08:52:19;3.95;;;1.45;;
66546;SDS011;53400;50.364;14.874;2023-06-04T08:54:48;4.88;;;1.60;;
66546;SDS011;53400;50.364;14.874;2023-06-04T08:57:16;5.22;;;1.45;;
66546;SDS011;53400;50.364;14.874;2023-06-04T08:59:44;4.20;;;1.60;;
66546;SDS011;53400;50.364;14.874;2023-06-04T09:02:14;4.90;;;1.63;;
66546;SDS011;53400;50.364;14.874;2023-06-04T09:04:41;4.20;;;1.40;;
66546;SDS011;53400;50.364;14.874;2023-06-04T09:07:08;5.80;;;1.60;;
66546;SDS011;53400;50.364;14.874;2023-06-04T09:09:39;4.80;;;1.50;;
66546;SDS011;53400;50.364;14.874;2023-06-04T09:12:08;5.07;;;1.50;;
66546;SDS011;53400;50.364;14.874;2023-06-04T09:14:39;3.42;;;1.33;;
66546;SDS011;53400;50.364;14.874;2023-06-04T09:17:06;3.53;;;1.45;;
66546;SDS011;53400;50.364;14.874;2023-06-04T09:19:32;4.40;;;1.60;;
66546;SDS011;53400;50.364;14.874;2023-06-04T09:21:59;5.75;;;1.38;;
66546;SDS011;53400;50.364;14.874;2023-06-04T09:24:39;3.25;;;1.30;;
66546;SDS011;53400;50.364;14.874;2023-06-04T09:27:09;3.80;;;1.50;;
66546;SDS011;53400;50.364;14.874;2023-06-04T09:29:37;3.85;;;1.40;;
66546;SDS011;53400;50.364;14.874;2023-06-04T09:32:03;4.60;;;1.40;;
66546;SDS011;53400;50.364;14.874;2023-06-04T09:34:30;3.92;;;1.50;;
66546;SDS011;53400;50.364;14.874;2023-06-04T09:36:57;4.75;;;1.40;;
66546;SDS011;53400;50.364;14.874;2023-06-04T09:39:25;4.10;;;1.50;;
66546;SDS011;53400;50.364;14.874;2023-06-04T09:41:58;3.80;;;1.30;;
66546;SDS011;53400;50.364;14.874;2023-06-04T09:44:26;3.67;;;1.20;;
66546;SDS011;53400;50.364;14.874;2023-06-04T09:46:55;4.65;;;1.50;;
66546;SDS011;53400;50.364;14.874;2023-06-04T09:49:22;4.85;;;2.00;;
66546;SDS011;53400;50.364;14.874;2023-06-04T09:51:48;4.97;;;1.33;;
66546;SDS011;53400;50.364;14.874;2023-06-04T09:54:15;3.47;;;1.30;;
66546;SDS011;53400;50.364;14.874;2023-06-04T09:56:41;3.25;;;1.40;;
66546;SDS011;53400;50.364;14.874;2023-06-04T09:59:10;4.22;;;1.30;;
66546;SDS011;53400;50.364;14.874;2023-06-04T10:01:38;4.10;;;1.30;;
66546;SDS011;53400;50.364;14.874;2023-06-04T10:04:09;4.72;;;1.50;;
66546;SDS011;53400;50.364;14.874;2023-06-04T10:06:37;4.93;;;1.42;;
66546;SDS011;53400;50.364;14.874;2023-06-04T10:09:05;4.20;;;1.40;;
66546;SDS011;53400;50.364;14.874;2023-06-04T10:11:34;3.78;;;1.15;;
66546;SDS011;53400;50.364;14.874;2023-06-04T10:14:03;3.88;;;1.40;;
66546;SDS011;53400;50.364;14.874;2023-06-04T10:16:38;3.15;;;1.23;;
66546;SDS011;53400;50.364;14.874;2023-06-04T10:19:06;3.10;;;1.33;;
66546;SDS011;53400;50.364;14.874;2023-06-04T10:21:34;4.65;;;1.35;;
66546;SDS011;53400;50.364;14.874;2023-06-04T10:24:03;3.33;;;1.20;;
66546;SDS011;53400;50.364;14.874;2023-06-04T10:26:32;4.65;;;1.30;;
66546;SDS011;53400;50.364;14.874;2023-06-04T10:29:00;4.07;;;1.20;;
66546;SDS011;53400;50.364;14.874;2023-06-04T10:31:26;2.70;;;1.20;;
66546;SDS011;53400;50.364;14.874;2023-06-04T10:33:59;3.95;;;1.40;;
66546;SDS011;53400;50.364;14.874;2023-06-04T10:36:26;3.63;;;1.40;;
66546;SDS011;53400;50.364;14.874;2023-06-04T10:38:59;3.20;;;1.15;;
66546;SDS011;53400;50.364;14.874;2023-06-04T10:41:26;4.05;;;1.23;;
66546;SDS011;53400;50.364;14.874;2023-06-04T10:44:01;3.00;;;1.05;;
66546;SDS011;53400;50.364;14.874;2023-06-04T10:46:37;3.17;;;1.20;;
66546;SDS011;53400;50.364;14.874;2023-06-04T10:49:08;3.20;;;1.05;;
66546;SDS011;53400;50.364;14.874;2023-06-04T10:51:35;4.05;;;1.50;;
66546;SDS011;53400;50.364;14.874;2023-06-04T10:54:02;3.83;;;1.42;;
66546;SDS011;53400;50.364;14.874;2023-06-04T10:56:29;3.40;;;1.27;;
66546;SDS011;53400;50.364;14.874;2023-06-04T10:58:58;3.67;;;1.20;;
66546;SDS011;53400;50.364;14.874;2023-06-04T11:01:28;4.38;;;1.20;;
66546;SDS011;53400;50.364;14.874;2023-06-04T11:03:57;4.20;;;1.20;;
66546;SDS011;53400;50.364;14.874;2023-06-04T11:06:25;3.65;;;1.20;;
66546;SDS011;53400;50.364;14.874;2023-06-04T11:09:01;2.42;;;1.00;;
66546;SDS011;53400;50.364;14.874;2023-06-04T11:11:28;2.97;;;1.17;;
66546;SDS011;53400;50.364;14.874;2023-06-04T11:13:55;4.32;;;1.10;;
66546;SDS011;53400;50.364;14.874;2023-06-04T11:16:21;3.95;;;1.30;;
66546;SDS011;53400;50.364;14.874;2023-06-04T11:18:57;3.53;;;1.20;;
66546;SDS011;53400;50.364;14.874;2023-06-04T11:21:26;3.85;;;1.20;;
66546;SDS011;53400;50.364;14.874;2023-06-04T11:23:57;3.50;;;1.17;;
66546;SDS011;53400;50.364;14.874;2023-06-04T11:26:29;4.70;;;1.23;;
66546;SDS011;53400;50.364;14.874;2023-06-04T11:28:55;3.50;;;1.27;;
66546;SDS011;53400;50.364;14.874;2023-06-04T11:31:21;3.60;;;1.50;;
66546;SDS011;53400;50.364;14.874;2023-06-04T11:33:48;3.92;;;1.10;;
66546;SDS011;53400;50.364;14.874;2023-06-04T11:36:23;3.20;;;1.30;;
66546;SDS011;53400;50.364;14.874;2023-06-04T11:38:53;4.88;;;1.20;;
66546;SDS011;53400;50.364;14.874;2023-06-04T11:41:21;3.53;;;1.38;;
66546;SDS011;53400;50.364;14.874;2023-06-04T11:43:47;3.47;;;1.20;;
66546;SDS011;53400;50.364;14.874;2023-06-04T11:46:13;3.20;;;1.00;;
66546;SDS011;53400;50.364;14.874;2023-06-04T11:48:40;4.97;;;1.50;;
66546;SDS011;53400;50.364;14.874;2023-06-04T11:51:06;3.47;;;1.20;;
66546;SDS011;53400;50.364;14.874;2023-06-04T11:53:38;3.45;;;1.20;;
66546;SDS011;53400;50.364;14.874;2023-06-04T11:56:04;3.97;;;1.38;;
66546;SDS011;53400;50.364;14.874;2023-06-04T11:58:32;4.90;;;1.60;;
66546;SDS011;53400;50.364;14.874;2023-06-04T12:00:59;3.92;;;1.33;;
66546;SDS011;53400;50.364;14.874;2023-06-04T12:03:37;5.50;;;1.55;;
66546;SDS011;53400;50.364;14.874;2023-06-04T12:06:13;3.65;;;1.40;;
66546;SDS011;53400;50.364;14.874;2023-06-04T12:08:49;3.97;;;1.50;;
66546;SDS011;53400;50.364;14.874;2023-06-04T12:11:23;5.15;;;1.30;;
66546;SDS011;53400;50.364;14.874;2023-06-04T12:13:55;3.03;;;1.10;;
66546;SDS011;53400;50.364;14.874;2023-06-04T12:16:21;3.75;;;1.35;;
66546;SDS011;53400;50.364;14.874;2023-06-04T12:18:47;3.10;;;1.20;;
66546;SDS011;53400;50.364;14.874;2023-06-04T12:21:16;2.80;;;1.10;;
66546;SDS011;53400;50.364;14.874;2023-06-04T12:23:49;5.45;;;1.50;;
66546;SDS011;53400;50.364;14.874;2023-06-04T12:26:22;3.40;;;1.20;;
66546;SDS011;53400;50.364;14.874;2023-06-04T12:28:59;3.97;;;1.40;;
66546;SDS011;53400;50.364;14.874;2023-06-04T12:31:26;3.15;;;1.23;;
66546;SDS011;53400;50.364;14.874;2023-06-04T12:33:58;3.63;;;1.30;;
66546;SDS011;53400;50.364;14.874;2023-06-04T12:36:25;4.30;;;1.38;;
66546;SDS011;53400;50.364;14.874;2023-06-04T12:38:53;4.22;;;1.30;;
66546;SDS011;53400;50.364;14.874;2023-06-04T12:41:19;3.53;;;1.48;;
66546;SDS011;53400;50.364;14.874;2023-06-04T12:43:45;4.38;;;1.40;;
66546;SDS011;53400;50.364;14.874;2023-06-04T12:46:11;3.20;;;1.30;;
66546;SDS011;53400;50.364;14.874;2023-06-04T12:48:38;3.13;;;1.33;;
66546;SDS011;53400;50.364;14.874;2023-06-04T12:51:04;4.15;;;1.75;;
66546;SDS011;53400;50.364;14.874;2023-06-04T12:53:31;3.08;;;1.27;;
66546;SDS011;53400;50.364;14.874;2023-06-04T12:55:58;3.13;;;1.30;;
66546;SDS011;53400;50.364;14.874;2023-06-04T12:58:25;3.58;;;1.40;;
66546;SDS011;53400;50.364;14.874;2023-06-04T13:00:51;3.85;;;1.50;;
66546;SDS011;53400;50.364;14.874;2023-06-04T13:03:17;4.28;;;1.35;;
66546;SDS011;53400;50.364;14.874;2023-06-04T13:05:43;4.07;;;1.55;;
66546;SDS011;53400;50.364;14.874;2023-06-04T13:08:09;3.85;;;1.55;;
66546;SDS011;53400;50.364;14.874;2023-06-04T13:10:36;4.25;;;1.70;;
66546;SDS011;53400;50.364;14.874;2023-06-04T13:13:04;4.18;;;1.38;;
66546;SDS011;53400;50.364;14.874;2023-06-04T13:15:30;4.75;;;1.40;;
66546;SDS011;53400;50.364;14.874;2023-06-04T13:17:56;3.40;;;1.38;;
66546;SDS011;53400;50.364;14.874;2023-06-04T13:20:25;3.17;;;1.40;;
66546;SDS011;53400;50.364;14.874;2023-06-04T13:22:52;4.10;;;1.25;;
66546;SDS011;53400;50.364;14.874;2023-06-04T13:25:18;5.20;;;1.60;;
66546;SDS011;53400;50.364;14.874;2023-06-04T13:27:44;4.80;;;2.47;;
66546;SDS011;53400;50.364;14.874;2023-06-04T13:30:12;5.65;;;1.45;;
66546;SDS011;53400;50.364;14.874;2023-06-04T13:32:39;3.50;;;1.48;;
66546;SDS011;53400;50.364;14.874;2023-06-04T13:35:05;3.08;;;1.40;;
66546;SDS011;53400;50.364;14.874;2023-06-04T13:37:32;3.38;;;1.27;;
66546;SDS011;53400;50.364;14.874;2023-06-04T13:39:58;7.50;;;1.60;;
66546;SDS011;53400;50.364;14.874;2023-06-04T13:42:26;3.30;;;1.40;;
66546;SDS011;53400;50.364;14.874;2023-06-04T13:44:52;4.35;;;1.50;;
66546;SDS011;53400;50.364;14.874;2023-06-04T13:47:20;3.67;;;1.38;;
66546;SDS011;53400;50.364;14.874;2023-06-04T13:49:47;3.83;;;1.40;;
66546;SDS011;53400;50.364;14.874;2023-06-04T13:52:13;4.07;;;1.50;;
66546;SDS011;53400;50.364;14.874;2023-06-04T13:54:39;4.22;;;1.38;;
66546;SDS011;53400;50.364;14.874;2023-06-04T13:57:06;3.83;;;1.38;;
66546;SDS011;53400;50.364;14.874;2023-06-04T13:59:36;4.00;;;1.40;;
66546;SDS011;53400;50.364;14.874;2023-06-04T14:02:03;5.00;;;1.75;;
66546;SDS011;53400;50.364;14.874;2023-06-04T14:04:30;4.72;;;1.50;;
66546;SDS011;53400;50.364;14.874;2023-06-04T14:06:57;5.35;;;1.50;;
66546;SDS011;53400;50.364;14.874;2023-06-04T14:09:23;5.05;;;1.60;;
66546;SDS011;53400;50.364;14.874;2023-06-04T14:11:49;3.78;;;1.45;;
66546;SDS011;53400;50.364;14.874;2023-06-04T14:14:16;4.93;;;1.77;;
66546;SDS011;53400;50.364;14.874;2023-06-04T14:16:43;4.13;;;1.50;;
66546;SDS011;53400;50.364;14.874;2023-06-04T14:19:11;5.20;;;1.60;;
66546;SDS011;53400;50.364;14.874;2023-06-04T14:21:39;4.85;;;1.55;;
66546;SDS011;53400;50.364;14.874;2023-06-04T14:24:05;5.97;;;1.60;;
66546;SDS011;53400;50.364;14.874;2023-06-04T14:26:32;4.45;;;1.70;;
66546;SDS011;53400;50.364;14.874;2023-06-04T14:28:59;3.85;;;1.60;;
66546;SDS011;53400;50.364;14.874;2023-06-04T14:31:25;4.18;;;1.60;;
66546;SDS011;53400;50.364;14.874;2023-06-04T14:33:52;3.88;;;1.60;;
66546;SDS011;53400;50.364;14.874;2023-06-04T14:36:18;4.25;;;1.70;;